Time;durP1;ratioP1;P1;durP2;ratioP2;P2;SDS_P1;SDS_P2;PMS_P1;PMS_P2;Temp;Humidity;BMP_temperature;BMP_pressure;BME280_temperature;BME280_humidity;BME280_pressure;Samples;Min_cycle;Max_cycle;Signal;HPM_P1;HPM_P2
2023/04/07 00:03:17;;;;;;;11.95;8.90;;;;;;;;;;10148862;28;20044;-65
2023/04/07 00:08:11;;;;;;;11.00;8.10;;;;;;;;;;10148831;28;20048;-65
2023/04/07 00:13:05;;;;;;;11.43;8.98;;;;;;;;;;10147988;28;20052;-65
2023/04/07 00:17:58;;;;;;;12.13;8.05;;;;;;;;;;10148082;28;20127;-67
2023/04/07 00:22:52;;;;;;;10.60;8.82;;;;;;;;;;10145290;28;20440;-67
2023/04/07 00:27:45;;;;;;;12.77;9.18;;;;;;;;;;10146907;28;20048;-65
2023/04/07 00:32:39;;;;;;;12.13;10.45;;;;;;;;;;10148140;28;20072;-67
2023/04/07 00:37:32;;;;;;;9.90;8.52;;;;;;;;;;10147137;28;20044;-67
2023/04/07 00:42:26;;;;;;;12.68;9.05;;;;;;;;;;10129108;28;20473;-67
2023/04/07 00:47:20;;;;;;;12.80;8.73;;;;;;;;;;10128672;28;20546;-66
2023/04/07 00:52:13;;;;;;;9.60;8.52;;;;;;;;;;10129154;28;20054;-67
2023/04/07 00:57:07;;;;;;;13.85;9.82;;;;;;;;;;10146951;28;20044;-67
2023/04/07 01:02:22;;;;;;;14.45;9.48;;;;;;;;;;10146017;28;20048;-66
2023/04/07 01:07:17;;;;;;;12.40;9.10;;;;;;;;;;10128002;28;20048;-67
2023/04/07 01:12:41;;;;;;;11.20;8.43;;;;;;;;;;10113254;28;20527;-66
2023/04/07 01:17:41;;;;;;;14.73;9.13;;;;;;;;;;10127947;28;20091;-67
2023/04/07 01:22:39;;;;;;;;;;;;;;;;;;10128213;28;20044;-65
2023/04/07 01:28:07;;;;;;;10.65;9.40;;;;;;;;;;10128167;28;20373;-67
2023/04/07 01:33:00;;;;;;;10.40;7.88;;;;;;;;;;10134033;28;20045;-67
2023/04/07 01:37:55;;;;;;;13.10;8.82;;;;;;;;;;10127827;28;20084;-66
2023/04/07 01:42:48;;;;;;;10.95;8.52;;;;;;;;;;10127322;28;20080;-67
2023/04/07 01:47:41;;;;;;;12.18;7.20;;;;;;;;;;10126708;28;20139;-66
2023/04/07 01:52:35;;;;;;;11.00;8.07;;;;;;;;;;10145131;28;20083;-66
2023/04/07 01:57:29;;;;;;;9.27;8.18;;;;;;;;;;10127768;28;20049;-66
2023/04/07 02:02:28;;;;;;;11.90;8.40;;;;;;;;;;10127166;28;20059;-66
2023/04/07 02:07:45;;;;;;;8.73;7.55;;;;;;;;;;10127119;28;20146;-66
2023/04/07 02:12:38;;;;;;;9.93;8.27;;;;;;;;;;10101861;28;20420;-67
2023/04/07 02:17:40;;;;;;;8.43;7.28;;;;;;;;;;10118971;28;20048;-66
2023/04/07 02:22:33;;;;;;;12.23;8.63;;;;;;;;;;10152309;28;20037;-67
2023/04/07 02:27:26;;;;;;;10.45;8.75;;;;;;;;;;10152372;28;20032;-66
2023/04/07 02:32:19;;;;;;;8.10;7.30;;;;;;;;;;10134485;28;20048;-66
2023/04/07 02:37:12;;;;;;;9.90;8.48;;;;;;;;;;10152045;28;20044;-66
2023/04/07 02:42:06;;;;;;;9.95;8.20;;;;;;;;;;10122191;28;20074;-66
2023/04/07 02:47:00;;;;;;;11.13;7.57;;;;;;;;;;10151432;28;20463;-65
2023/04/07 02:51:53;;;;;;;12.65;7.70;;;;;;;;;;10150887;28;20044;-66
2023/04/07 02:56:46;;;;;;;10.10;7.57;;;;;;;;;;10133694;28;20044;-66
2023/04/07 03:01:40;;;;;;;12.32;7.15;;;;;;;;;;10151491;28;20053;-66
2023/04/07 03:06:34;;;;;;;11.10;8.95;;;;;;;;;;10133674;28;20052;-66
2023/04/07 03:11:36;;;;;;;13.18;7.88;;;;;;;;;;10132946;28;20045;-66
2023/04/07 03:16:29;;;;;;;12.40;7.45;;;;;;;;;;10132840;28;20048;-66
2023/04/07 03:21:32;;;;;;;15.52;8.57;;;;;;;;;;10132783;28;20051;-66
2023/04/07 03:26:26;;;;;;;12.65;9.18;;;;;;;;;;10131175;28;20143;-66
2023/04/07 03:31:21;;;;;;;13.20;9.05;;;;;;;;;;10132225;28;20048;-66
2023/04/07 03:36:18;;;;;;;14.75;8.13;;;;;;;;;;10131773;28;20505;-66
2023/04/07 03:41:12;;;;;;;10.77;7.68;;;;;;;;;;10132289;28;20109;-66
2023/04/07 03:46:06;;;;;;;9.40;7.85;;;;;;;;;;10149195;28;20076;-66
2023/04/07 03:51:01;;;;;;;12.70;7.30;;;;;;;;;;10130908;28;20056;-66
2023/04/07 03:55:56;;;;;;;11.48;7.40;;;;;;;;;;10131444;28;20067;-66
2023/04/07 04:01:06;;;;;;;12.95;8.95;;;;;;;;;;10130549;28;20044;-65
2023/04/07 04:06:00;;;;;;;13.07;7.93;;;;;;;;;;10131001;28;20060;-66
2023/04/07 04:10:56;;;;;;;7.88;7.03;;;;;;;;;;10130602;28;20044;-66
2023/04/07 04:15:55;;;;;;;8.60;7.80;;;;;;;;;;10130180;28;20056;-66
2023/04/07 04:20:49;;;;;;;11.60;8.23;;;;;;;;;;10148157;28;20107;-66
2023/04/07 04:25:44;;;;;;;11.85;7.53;;;;;;;;;;10130680;28;20052;-66
2023/04/07 04:30:38;;;;;;;9.82;7.82;;;;;;;;;;10129524;28;20049;-66
2023/04/07 04:35:31;;;;;;;8.38;7.55;;;;;;;;;;10129311;28;20058;-66
2023/04/07 04:40:37;;;;;;;20.27;8.20;;;;;;;;;;10129384;28;20071;-66
2023/04/07 04:45:32;;;;;;;14.07;8.68;;;;;;;;;;10119200;28;20148;-66
2023/04/07 04:50:27;;;;;;;10.75;7.75;;;;;;;;;;10114339;28;20405;-66
2023/04/07 04:55:20;;;;;;;9.73;7.43;;;;;;;;;;10124548;28;20080;-66
2023/04/07 05:00:16;;;;;;;11.73;8.30;;;;;;;;;;10124718;28;20071;-66
2023/04/07 05:05:12;;;;;;;11.73;8.25;;;;;;;;;;10112086;28;20098;-66
2023/04/07 05:10:08;;;;;;;13.43;9.32;;;;;;;;;;10128326;28;20102;-66
2023/04/07 05:15:11;;;;;;;16.77;10.10;;;;;;;;;;10128104;28;20045;-66
2023/04/07 05:20:10;;;;;;;10.80;9.70;;;;;;;;;;10128411;28;20524;-65
2023/04/07 05:25:08;;;;;;;32.55;11.23;;;;;;;;;;10127500;28;20041;-65
2023/04/07 05:30:02;;;;;;;13.48;9.75;;;;;;;;;;10125412;28;20048;-65
2023/04/07 05:34:59;;;;;;;33.10;10.23;;;;;;;;;;10111158;28;20060;-65
2023/04/07 05:39:56;;;;;;;20.83;9.10;;;;;;;;;;10125824;28;20468;-65
2023/04/07 05:44:50;;;;;;;28.55;8.95;;;;;;;;;;10126811;28;20059;-65
2023/04/07 05:49:47;;;;;;;42.30;9.30;;;;;;;;;;10126372;28;20052;-64
2023/04/07 05:54:41;;;;;;;18.67;8.95;;;;;;;;;;10127521;28;20058;-64
2023/04/07 05:59:36;;;;;;;18.33;9.85;;;;;;;;;;10126761;28;20052;-65
2023/04/07 06:04:31;;;;;;;15.63;9.45;;;;;;;;;;10127169;28;20056;-66
2023/04/07 06:09:25;;;;;;;21.23;8.88;;;;;;;;;;10124293;28;20050;-65
2023/04/07 06:14:18;;;;;;;26.80;9.23;;;;;;;;;;10144507;28;20063;-65
2023/04/07 06:19:11;;;;;;;20.15;8.98;;;;;;;;;;10144394;28;20044;-66
2023/04/07 06:24:05;;;;;;;52.28;11.10;;;;;;;;;;10126903;28;20048;-65
2023/04/07 06:28:59;;;;;;;44.95;10.52;;;;;;;;;;10125406;28;20444;-65
2023/04/07 06:33:54;;;;;;;55.63;11.13;;;;;;;;;;10143178;28;20102;-65
2023/04/07 06:38:47;;;;;;;58.20;11.18;;;;;;;;;;10141427;28;20466;-64
2023/04/07 06:43:40;;;;;;;34.95;12.88;;;;;;;;;;10123843;28;20082;-66
2023/04/07 06:48:34;;;;;;;21.13;8.57;;;;;;;;;;10123158;28;20122;-66
2023/04/07 06:53:28;;;;;;;11.23;7.75;;;;;;;;;;10118470;28;20123;-71
2023/04/07 06:58:21;;;;;;;18.65;7.40;;;;;;;;;;10133750;28;20048;-67
2023/04/07 07:03:16;;;;;;;39.80;10.18;;;;;;;;;;10150121;28;20083;-66
2023/04/07 07:08:10;;;;;;;32.55;10.43;;;;;;;;;;10149248;28;20060;-66
2023/04/07 07:13:03;;;;;;;35.40;10.05;;;;;;;;;;10149337;28;21819;-66
2023/04/07 07:17:57;;;;;;;23.77;9.20;;;;;;;;;;10148146;28;20054;-64
2023/04/07 07:22:51;;;;;;;17.67;8.60;;;;;;;;;;10150256;28;20040;-67
2023/04/07 07:27:43;;;;;;;20.17;9.43;;;;;;;;;;10149083;28;20135;-67
2023/04/07 07:32:37;;;;;;;20.00;8.60;;;;;;;;;;10149729;28;20106;-68
2023/04/07 07:37:32;;;;;;;16.20;7.70;;;;;;;;;;10149978;28;20048;-69
2023/04/07 07:42:24;;;;;;;12.52;7.45;;;;;;;;;;10146466;28;20052;-69
2023/04/07 07:47:18;;;;;;;18.15;10.18;;;;;;;;;;10131003;28;20140;-69
2023/04/07 07:52:11;;;;;;;12.27;9.05;;;;;;;;;;10141264;28;20594;-67
2023/04/07 07:57:06;;;;;;;12.70;8.48;;;;;;;;;;10148856;28;20060;-67
2023/04/07 08:02:00;;;;;;;11.63;9.60;;;;;;;;;;10148701;28;20493;-67
2023/04/07 08:06:53;;;;;;;16.17;9.55;;;;;;;;;;10148352;28;20497;-67
2023/04/07 08:11:47;;;;;;;21.70;10.05;;;;;;;;;;10147733;28;20465;-67
2023/04/07 08:16:40;;;;;;;15.43;11.77;;;;;;;;;;10148156;28;20048;-67
2023/04/07 08:21:34;;;;;;;15.07;11.43;;;;;;;;;;10146565;28;20045;-67
2023/04/07 08:26:28;;;;;;;14.68;10.20;;;;;;;;;;10147819;28;20131;-68
2023/04/07 08:31:21;;;;;;;22.33;11.88;;;;;;;;;;10130144;28;20544;-67
2023/04/07 08:36:14;;;;;;;11.57;9.57;;;;;;;;;;10129612;28;20056;-68
2023/04/07 08:41:10;;;;;;;15.38;10.13;;;;;;;;;;10126242;28;20400;-67
2023/04/07 08:46:05;;;;;;;14.10;10.32;;;;;;;;;;10119243;28;20111;-67
2023/04/07 08:51:00;;;;;;;17.48;9.63;;;;;;;;;;10120684;28;20044;-67
2023/04/07 08:55:55;;;;;;;12.35;9.82;;;;;;;;;;10128320;28;20059;-68
2023/04/07 09:00:48;;;;;;;18.42;10.75;;;;;;;;;;10119581;28;20060;-67
2023/04/07 09:05:45;;;;;;;15.27;10.45;;;;;;;;;;10112845;28;20464;-68
2023/04/07 09:10:38;;;;;;;16.58;9.90;;;;;;;;;;10132891;28;20060;-67
2023/04/07 09:15:31;;;;;;;11.50;9.65;;;;;;;;;;10137765;28;20052;-67
2023/04/07 09:20:25;;;;;;;21.23;12.35;;;;;;;;;;10138090;28;20501;-68
2023/04/07 09:25:24;;;;;;;13.23;9.82;;;;;;;;;;10135973;28;20497;-68
2023/04/07 09:30:18;;;;;;;11.15;9.68;;;;;;;;;;10119059;28;20079;-68
2023/04/07 09:35:12;;;;;;;15.38;9.88;;;;;;;;;;10132887;28;20135;-67
2023/04/07 09:40:08;;;;;;;15.57;9.98;;;;;;;;;;10135916;28;20058;-70
2023/04/07 09:45:01;;;;;;;14.00;12.35;;;;;;;;;;10145155;28;20044;-67
2023/04/07 09:49:55;;;;;;;14.80;10.93;;;;;;;;;;10143961;28;21299;-67
2023/04/07 09:54:51;;;;;;;16.65;10.30;;;;;;;;;;10143581;28;20088;-67
2023/04/07 09:59:44;;;;;;;11.05;9.93;;;;;;;;;;10144045;28;20052;-67
2023/04/07 10:04:40;;;;;;;11.50;10.02;;;;;;;;;;10143554;28;20490;-67
2023/04/07 10:09:33;;;;;;;17.17;9.10;;;;;;;;;;10127004;28;20048;-67
2023/04/07 10:14:27;;;;;;;13.75;10.73;;;;;;;;;;10144322;28;20044;-68
2023/04/07 10:19:22;;;;;;;14.40;9.85;;;;;;;;;;10144649;28;20072;-68
2023/04/07 10:24:19;;;;;;;11.18;9.95;;;;;;;;;;10141712;28;20126;-68
2023/04/07 10:29:13;;;;;;;12.73;9.82;;;;;;;;;;10142235;28;20056;-67
2023/04/07 10:34:07;;;;;;;10.52;9.45;;;;;;;;;;10130450;28;20044;-67
2023/04/07 10:39:08;;;;;;;11.30;9.52;;;;;;;;;;10151710;28;20059;-67
2023/04/07 10:44:01;;;;;;;11.35;10.18;;;;;;;;;;10151254;28;20095;-67
2023/04/07 10:49:09;;;;;;;12.32;10.75;;;;;;;;;;10130254;28;20056;-68
2023/04/07 10:54:21;;;;;;;11.95;10.70;;;;;;;;;;10151986;28;20464;-67
2023/04/07 10:59:16;;;;;;;16.52;11.63;;;;;;;;;;10150602;28;20041;-66
2023/04/07 11:04:09;;;;;;;13.32;11.13;;;;;;;;;;10148504;28;20456;-67
2023/04/07 11:09:03;;;;;;;13.65;12.25;;;;;;;;;;10149229;28;20385;-67
2023/04/07 11:13:57;;;;;;;13.00;11.35;;;;;;;;;;10149645;28;20123;-67
2023/04/07 11:18:51;;;;;;;13.05;11.65;;;;;;;;;;10150015;28;20131;-66
2023/04/07 11:23:46;;;;;;;16.30;12.07;;;;;;;;;;10133095;28;20048;-69
2023/04/07 11:28:51;;;;;;;15.52;13.35;;;;;;;;;;10150728;28;20071;-66
2023/04/07 11:33:52;;;;;;;12.43;10.63;;;;;;;;;;10131830;28;20045;-67
2023/04/07 11:38:45;;;;;;;17.42;13.07;;;;;;;;;;10149629;28;20055;-67
2023/04/07 11:43:40;;;;;;;16.45;13.80;;;;;;;;;;10148465;28;20043;-66
2023/04/07 11:48:40;;;;;;;15.10;13.57;;;;;;;;;;10148485;28;20095;-66
2023/04/07 11:53:36;;;;;;;13.00;11.68;;;;;;;;;;10146540;28;20049;-66
2023/04/07 11:58:29;;;;;;;13.27;11.88;;;;;;;;;;10148361;28;20052;-67
2023/04/07 12:03:23;;;;;;;14.07;12.57;;;;;;;;;;10148887;28;20044;-67
2023/04/07 12:08:18;;;;;;;16.30;13.88;;;;;;;;;;10148277;28;20064;-66
2023/04/07 12:13:12;;;;;;;17.13;12.52;;;;;;;;;;10147870;28;20276;-67
2023/04/07 12:18:06;;;;;;;16.70;13.30;;;;;;;;;;10143512;28;20166;-67
2023/04/07 12:22:59;;;;;;;19.58;13.65;;;;;;;;;;10147381;28;20048;-68
2023/04/07 12:27:53;;;;;;;14.50;13.00;;;;;;;;;;10143954;28;20044;-68
2023/04/07 12:32:46;;;;;;;16.23;14.48;;;;;;;;;;10147126;28;20043;-67
2023/04/07 12:37:40;;;;;;;16.13;14.52;;;;;;;;;;10147176;28;20048;-67
2023/04/07 12:42:33;;;;;;;14.77;13.27;;;;;;;;;;10147183;28;20048;-67
2023/04/07 12:47:27;;;;;;;16.10;13.98;;;;;;;;;;10128744;28;20052;-67
2023/04/07 12:52:21;;;;;;;19.05;13.82;;;;;;;;;;10145658;28;20052;-67
2023/04/07 12:57:15;;;;;;;19.40;13.68;;;;;;;;;;10146055;28;20075;-67
2023/04/07 13:02:10;;;;;;;19.55;13.35;;;;;;;;;;10141244;28;20080;-67
2023/04/07 13:07:03;;;;;;;15.70;12.23;;;;;;;;;;10145849;28;20053;-67
2023/04/07 13:11:57;;;;;;;15.18;12.88;;;;;;;;;;10146317;28;20052;-68
2023/04/07 13:16:50;;;;;;;15.32;12.60;;;;;;;;;;10145881;28;20054;-67
2023/04/07 13:21:44;;;;;;;50.60;14.07;;;;;;;;;;10145186;28;20076;-67
2023/04/07 13:26:39;;;;;;;15.18;13.60;;;;;;;;;;10146426;28;20486;-67
2023/04/07 13:31:32;;;;;;;17.10;14.65;;;;;;;;;;10145507;28;20033;-67
2023/04/07 13:36:27;;;;;;;17.25;13.65;;;;;;;;;;10137667;28;20063;-67
2023/04/07 13:41:21;;;;;;;19.13;13.88;;;;;;;;;;10144903;28;20048;-68
2023/04/07 13:46:16;;;;;;;18.15;14.15;;;;;;;;;;10144305;28;20052;-67
2023/04/07 13:51:20;;;;;;;24.40;15.32;;;;;;;;;;10145305;28;20044;-67
2023/04/07 13:56:14;;;;;;;19.75;13.80;;;;;;;;;;10143916;28;20044;-68
2023/04/07 14:01:08;;;;;;;18.63;14.73;;;;;;;;;;10144596;28;20051;-68
2023/04/07 14:06:01;;;;;;;24.58;17.30;;;;;;;;;;10141825;28;20079;-67
2023/04/07 14:10:56;;;;;;;24.92;14.93;;;;;;;;;;10151176;28;20424;-67
2023/04/07 14:15:51;;;;;;;21.55;13.35;;;;;;;;;;10152612;28;20059;-67
2023/04/07 14:20:46;;;;;;;19.52;13.43;;;;;;;;;;10148167;28;20037;-67
2023/04/07 14:25:39;;;;;;;19.27;12.10;;;;;;;;;;10149701;28;20045;-68
2023/04/07 14:30:37;;;;;;;16.77;11.93;;;;;;;;;;10133909;28;20528;-68
2023/04/07 14:35:31;;;;;;;14.25;10.77;;;;;;;;;;10152045;28;20098;-67
2023/04/07 14:40:24;;;;;;;12.80;10.70;;;;;;;;;;10148405;28;20102;-66
2023/04/07 14:45:17;;;;;;;18.05;14.05;;;;;;;;;;10151004;28;20102;-67
2023/04/07 14:50:11;;;;;;;20.80;13.00;;;;;;;;;;10151277;28;20048;-70
2023/04/07 14:55:06;;;;;;;18.92;12.77;;;;;;;;;;10152007;28;20131;-66
2023/04/07 15:00:00;;;;;;;20.77;12.88;;;;;;;;;;10151010;28;20455;-65
2023/04/07 15:04:54;;;;;;;17.23;12.93;;;;;;;;;;10142524;28;20077;-67
2023/04/07 15:09:47;;;;;;;15.30;11.77;;;;;;;;;;10144358;28;20045;-65
2023/04/07 15:14:41;;;;;;;34.72;26.38;;;;;;;;;;10148509;28;20119;-66
2023/04/07 15:19:35;;;;;;;22.15;14.45;;;;;;;;;;10147596;28;20064;-67
2023/04/07 15:24:28;;;;;;;14.75;11.30;;;;;;;;;;10149899;28;20044;-67
2023/04/07 15:29:21;;;;;;;11.80;10.57;;;;;;;;;;10149368;28;20445;-67
2023/04/07 15:34:14;;;;;;;12.00;9.68;;;;;;;;;;10146503;28;20051;-66
2023/04/07 15:39:08;;;;;;;12.82;9.55;;;;;;;;;;10158101;28;20040;-66
2023/04/07 15:44:03;;;;;;;13.52;10.23;;;;;;;;;;10149247;28;20105;-67
2023/04/07 15:48:56;;;;;;;17.05;12.13;;;;;;;;;;10149290;28;20509;-66
2023/04/07 15:53:50;;;;;;;12.93;11.00;;;;;;;;;;10149328;28;20044;-66
2023/04/07 15:58:46;;;;;;;14.98;11.43;;;;;;;;;;10148092;28;20052;-68
2023/04/07 16:03:40;;;;;;;11.95;10.70;;;;;;;;;;10148453;28;20519;-67
2023/04/07 16:08:34;;;;;;;10.45;9.45;;;;;;;;;;10148166;28;20394;-68
2023/04/07 16:13:28;;;;;;;15.57;11.23;;;;;;;;;;10147816;28;20068;-67
2023/04/07 16:18:21;;;;;;;12.88;11.20;;;;;;;;;;10148308;28;20048;-67
2023/04/07 16:23:15;;;;;;;28.05;22.23;;;;;;;;;;10148051;28;20059;-67
2023/04/07 16:28:09;;;;;;;13.38;11.05;;;;;;;;;;10146789;28;20051;-67
2023/04/07 16:33:03;;;;;;;14.55;10.80;;;;;;;;;;10146975;28;20057;-67
2023/04/07 16:38:02;;;;;;;14.45;11.82;;;;;;;;;;10147117;28;20044;-70
2023/04/07 16:42:55;;;;;;;18.92;13.95;;;;;;;;;;10110199;28;20045;-68
2023/04/07 16:47:49;;;;;;;16.27;12.18;;;;;;;;;;10139229;28;20056;-65
2023/04/07 16:52:43;;;;;;;15.35;12.60;;;;;;;;;;10130950;28;20053;-65
2023/04/07 16:57:37;;;;;;;13.35;10.93;;;;;;;;;;10135673;28;20056;-66
2023/04/07 17:02:34;;;;;;;13.73;12.27;;;;;;;;;;10138847;28;20485;-65
2023/04/07 17:07:28;;;;;;;13.70;11.50;;;;;;;;;;10137462;28;20058;-65
2023/04/07 17:12:21;;;;;;;14.07;12.35;;;;;;;;;;10135565;28;20462;-65
2023/04/07 17:17:15;;;;;;;13.45;11.90;;;;;;;;;;10137425;28;20048;-65
2023/04/07 17:22:08;;;;;;;12.63;11.32;;;;;;;;;;10135292;28;20067;-66
2023/04/07 17:27:02;;;;;;;13.32;11.32;;;;;;;;;;10140761;28;20095;-66
2023/04/07 17:31:56;;;;;;;14.77;13.27;;;;;;;;;;10131305;28;20052;-66
2023/04/07 17:36:49;;;;;;;13.60;11.63;;;;;;;;;;10131390;28;20124;-65
2023/04/07 17:41:42;;;;;;;19.25;12.60;;;;;;;;;;10120003;28;20390;-66
2023/04/07 17:46:35;;;;;;;15.27;12.68;;;;;;;;;;10121062;28;20412;-65
2023/04/07 17:51:29;;;;;;;20.63;14.27;;;;;;;;;;10127928;28;20083;-67
2023/04/07 17:56:23;;;;;;;49.22;32.10;;;;;;;;;;10126273;28;20045;-66
2023/04/07 18:01:16;;;;;;;35.63;25.52;;;;;;;;;;10123286;28;20405;-66
2023/04/07 18:06:09;;;;;;;25.42;20.02;;;;;;;;;;10128618;28;20029;-67
2023/04/07 18:11:04;;;;;;;26.45;20.85;;;;;;;;;;10110649;28;20442;-67
2023/04/07 18:15:59;;;;;;;23.25;17.58;;;;;;;;;;10132477;28;20055;-67
2023/04/07 18:20:52;;;;;;;17.95;16.05;;;;;;;;;;10136508;28;20043;-67
2023/04/07 18:25:46;;;;;;;19.92;15.68;;;;;;;;;;10129608;28;20115;-67
2023/04/07 18:30:40;;;;;;;18.10;15.25;;;;;;;;;;10127712;28;20080;-69
2023/04/07 18:35:35;;;;;;;20.83;14.13;;;;;;;;;;10130142;28;20049;-67
2023/04/07 18:40:31;;;;;;;17.63;15.55;;;;;;;;;;10129441;28;20051;-66
2023/04/07 18:45:24;;;;;;;19.58;15.98;;;;;;;;;;10130242;28;20106;-66
2023/04/07 18:50:18;;;;;;;20.83;16.50;;;;;;;;;;10127837;28;20566;-66
2023/04/07 18:55:12;;;;;;;17.45;15.57;;;;;;;;;;10135847;28;20055;-66
2023/04/07 19:00:08;;;;;;;18.38;16.55;;;;;;;;;;10133744;28;20091;-65
2023/04/07 19:05:03;;;;;;;21.15;16.02;;;;;;;;;;10126581;28;20098;-69
2023/04/07 19:09:56;;;;;;;21.85;16.50;;;;;;;;;;10142409;28;20080;-65
2023/04/07 19:14:49;;;;;;;21.30;16.00;;;;;;;;;;10118827;28;20051;-67
2023/04/07 19:19:43;;;;;;;18.60;15.88;;;;;;;;;;10129153;28;20078;-66
2023/04/07 19:24:36;;;;;;;18.85;16.85;;;;;;;;;;10137132;28;20484;-63
2023/04/07 19:29:30;;;;;;;22.67;18.25;;;;;;;;;;10132129;28;20063;-64
2023/04/07 19:34:23;;;;;;;19.75;17.65;;;;;;;;;;10126397;28;20059;-64
2023/04/07 19:39:16;;;;;;;22.90;20.05;;;;;;;;;;10125159;28;20135;-63
2023/04/07 19:44:10;;;;;;;20.65;18.48;;;;;;;;;;10116744;28;20142;-62
2023/04/07 19:49:03;;;;;;;20.67;17.45;;;;;;;;;;10128796;28;20060;-63
2023/04/07 19:53:56;;;;;;;20.35;17.77;;;;;;;;;;10131407;28;20090;-63
2023/04/07 19:58:49;;;;;;;23.70;17.08;;;;;;;;;;10136895;28;20143;-63
2023/04/07 20:03:44;;;;;;;25.00;17.88;;;;;;;;;;10138823;28;20040;-63
2023/04/07 20:08:38;;;;;;;20.23;18.10;;;;;;;;;;10139722;28;20052;-63
2023/04/07 20:13:33;;;;;;;26.83;22.65;;;;;;;;;;10118198;28;20048;-63
2023/04/07 20:18:27;;;;;;;23.70;19.70;;;;;;;;;;10141674;28;20118;-63
2023/04/07 20:23:22;;;;;;;28.58;21.88;;;;;;;;;;10134848;28;20052;-63
2023/04/07 20:28:16;;;;;;;25.67;23.08;;;;;;;;;;10121165;28;20040;-63
2023/04/07 20:33:09;;;;;;;20.23;17.27;;;;;;;;;;10130040;28;20091;-63
2023/04/07 20:38:02;;;;;;;25.02;18.77;;;;;;;;;;10125250;28;20048;-63
2023/04/07 20:42:55;;;;;;;21.33;16.98;;;;;;;;;;10124039;28;20049;-62
2023/04/07 20:47:49;;;;;;;26.45;17.33;;;;;;;;;;10124517;28;20053;-65
2023/04/07 20:52:44;;;;;;;19.77;17.73;;;;;;;;;;10119169;28;20059;-63
2023/04/07 20:57:40;;;;;;;22.27;18.27;;;;;;;;;;10122477;28;20080;-65
2023/04/07 21:02:33;;;;;;;20.90;18.52;;;;;;;;;;10124050;28;20515;-65
2023/04/07 21:07:27;;;;;;;20.13;17.60;;;;;;;;;;10129657;28;20056;-65
2023/04/07 21:12:20;;;;;;;22.40;17.58;;;;;;;;;;10133516;28;20041;-65
2023/04/07 21:17:14;;;;;;;25.75;21.92;;;;;;;;;;10135758;28;20060;-65
2023/04/07 21:22:11;;;;;;;25.15;22.00;;;;;;;;;;10132774;28;20075;-66
2023/04/07 21:27:05;;;;;;;23.25;20.67;;;;;;;;;;10135344;28;20115;-67
2023/04/07 21:32:00;;;;;;;26.00;23.10;;;;;;;;;;10135851;28;20125;-67
2023/04/07 21:36:53;;;;;;;26.05;21.77;;;;;;;;;;10132423;28;20119;-67
2023/04/07 21:41:47;;;;;;;24.05;21.55;;;;;;;;;;10126795;28;20051;-67
2023/04/07 21:46:41;;;;;;;22.30;19.92;;;;;;;;;;10135386;28;20056;-66
2023/04/07 21:51:33;;;;;;;23.25;19.08;;;;;;;;;;10135074;28;20044;-65
2023/04/07 21:56:26;;;;;;;23.45;18.70;;;;;;;;;;10122212;28;20044;-64
2023/04/07 22:01:21;;;;;;;23.77;18.80;;;;;;;;;;10138914;28;20040;-64
2023/04/07 22:06:14;;;;;;;24.45;18.70;;;;;;;;;;10135720;28;20588;-65
2023/04/07 22:11:08;;;;;;;23.05;19.67;;;;;;;;;;10134509;28;20049;-64
2023/04/07 22:16:01;;;;;;;23.08;19.30;;;;;;;;;;10138618;28;20052;-64
2023/04/07 22:20:55;;;;;;;30.98;20.55;;;;;;;;;;10137554;28;20708;-66
2023/04/07 22:25:49;;;;;;;22.30;19.40;;;;;;;;;;10133186;28;20449;-64
2023/04/07 22:30:42;;;;;;;24.20;19.90;;;;;;;;;;10122038;28;20052;-63
2023/04/07 22:35:35;;;;;;;27.73;21.63;;;;;;;;;;10145329;28;20044;-64
2023/04/07 22:40:31;;;;;;;20.45;18.17;;;;;;;;;;10144662;28;20131;-64
2023/04/07 22:45:24;;;;;;;22.67;19.10;;;;;;;;;;10143051;28;20048;-64
2023/04/07 22:50:17;;;;;;;22.13;19.17;;;;;;;;;;10143088;28;20094;-64
2023/04/07 22:55:11;;;;;;;22.85;20.50;;;;;;;;;;10139636;28;20055;-64
2023/04/07 23:00:08;;;;;;;22.90;20.05;;;;;;;;;;10141790;28;20044;-64
2023/04/07 23:05:02;;;;;;;23.30;20.30;;;;;;;;;;10140330;28;20055;-66
2023/04/07 23:09:56;;;;;;;22.80;20.35;;;;;;;;;;10145448;28;20041;-65
2023/04/07 23:14:50;;;;;;;24.80;20.75;;;;;;;;;;10143787;28;20055;-65
2023/04/07 23:19:44;;;;;;;22.95;20.50;;;;;;;;;;10127202;28;20094;-65
2023/04/07 23:24:37;;;;;;;22.13;19.30;;;;;;;;;;10128652;28;20048;-66
2023/04/07 23:29:31;;;;;;;23.05;20.65;;;;;;;;;;10133412;28;20131;-66
2023/04/07 23:34:24;;;;;;;27.30;21.60;;;;;;;;;;10128545;28;20129;-64
2023/04/07 23:39:18;;;;;;;24.92;21.15;;;;;;;;;;10134170;28;20037;-63
2023/04/07 23:44:12;;;;;;;23.30;20.25;;;;;;;;;;10144495;28;20068;-63
2023/04/07 23:49:05;;;;;;;23.13;20.67;;;;;;;;;;10139164;28;20064;-64
2023/04/07 23:53:58;;;;;;;22.90;20.35;;;;;;;;;;10142777;28;20409;-64
2023/04/07 23:58:53;;;;;;;22.35;19.30;;;;;;;;;;10143490;28;20504;-63
